sensor_id;sensor_type;location;lat;lon;timestamp;pressure;altitude;pressure_sealevel;temperature;humidity
51287;BME280;37364;46.974;18.916;2023-05-23T00:00:20;154294.00;;;15.64;100.00
51287;BME280;37364;46.974;18.916;2023-05-23T00:02:50;154283.63;;;15.60;100.00
51287;BME280;37364;46.974;18.916;2023-05-23T00:05:24;154299.25;;;15.66;100.00
51287;BME280;37364;46.974;18.916;2023-05-23T00:07:55;154335.66;;;15.80;100.00
51287;BME280;37364;46.974;18.916;2023-05-23T00:10:25;154359.06;;;15.90;100.00
51287;BME280;37364;46.974;18.916;2023-05-23T00:12:55;154401.91;;;16.07;100.00
51287;BME280;37364;46.974;18.916;2023-05-23T00:15:26;154408.44;;;16.09;100.00
51287;BME280;37364;46.974;18.916;2023-05-23T00:17:57;154411.03;;;16.10;100.00
51287;BME280;37364;46.974;18.916;2023-05-23T00:20:30;154420.13;;;16.14;100.00
51287;BME280;37364;46.974;18.916;2023-05-23T00:23:01;154429.25;;;16.17;100.00
51287;BME280;37364;46.974;18.916;2023-05-23T00:25:32;154452.59;;;16.27;100.00
51287;BME280;37364;46.974;18.916;2023-05-23T00:28:03;154446.13;;;16.24;100.00
51287;BME280;37364;46.974;18.916;2023-05-23T00:30:33;154440.91;;;16.22;100.00
51287;BME280;37364;46.974;18.916;2023-05-23T00:33:05;154431.81;;;16.18;100.00
51287;BME280;37364;46.974;18.916;2023-05-23T00:35:37;154422.69;;;16.15;100.00
51287;BME280;37364;46.974;18.916;2023-05-23T00:38:08;154421.41;;;16.14;100.00
51287;BME280;37364;46.974;18.916;2023-05-23T00:40:38;154403.22;;;16.07;100.00
51287;BME280;37364;46.974;18.916;2023-05-23T00:43:09;154395.44;;;16.04;100.00
51287;BME280;37364;46.974;18.916;2023-05-23T00:45:39;154386.34;;;16.00;100.00
51287;BME280;37364;46.974;18.916;2023-05-23T00:48:09;154375.94;;;15.96;100.00
51287;BME280;37364;46.974;18.916;2023-05-23T00:50:42;154370.75;;;15.94;100.00
51287;BME280;37364;46.974;18.916;2023-05-23T00:53:13;154362.94;;;15.91;100.00
51287;BME280;37364;46.974;18.916;2023-05-23T00:55:43;154357.72;;;15.89;100.00
51287;BME280;37364;46.974;18.916;2023-05-23T00:58:14;154353.88;;;15.88;100.00
51287;BME280;37364;46.974;18.916;2023-05-23T01:00:44;154349.97;;;15.86;100.00
51287;BME280;37364;46.974;18.916;2023-05-23T01:03:16;154342.16;;;15.83;100.00
51287;BME280;37364;46.974;18.916;2023-05-23T01:05:49;154339.56;;;15.82;100.00
51287;BME280;37364;46.974;18.916;2023-05-23T01:08:20;154333.03;;;15.79;100.00
51287;BME280;37364;46.974;18.916;2023-05-23T01:10:50;154331.75;;;15.79;100.00
51287;BME280;37364;46.974;18.916;2023-05-23T01:13:25;154322.66;;;15.75;100.00
51287;BME280;37364;46.974;18.916;2023-05-23T01:16:04;154327.84;;;15.77;100.00
51287;BME280;37364;46.974;18.916;2023-05-23T01:18:38;154309.66;;;15.70;100.00
51287;BME280;37364;46.974;18.916;2023-05-23T01:21:13;154303.09;;;15.68;100.00
51287;BME280;37364;46.974;18.916;2023-05-23T01:24:05;154291.44;;;15.63;100.00
51287;BME280;37364;46.974;18.916;2023-05-23T01:26:52;154292.72;;;15.63;100.00
51287;BME280;37364;46.974;18.916;2023-05-23T01:29:33;154284.97;;;15.60;100.00
51287;BME280;37364;46.974;18.916;2023-05-23T01:32:09;154275.84;;;15.57;100.00
51287;BME280;37364;46.974;18.916;2023-05-23T01:34:41;154266.75;;;15.53;100.00
51287;BME280;37364;46.974;18.916;2023-05-23T01:37:12;154270.66;;;15.55;100.00
51287;BME280;37364;46.974;18.916;2023-05-23T01:39:45;154264.13;;;15.52;100.00
51287;BME280;37364;46.974;18.916;2023-05-23T01:42:16;154258.94;;;15.50;100.00
51287;BME280;37364;46.974;18.916;2023-05-23T01:44:49;154249.88;;;15.47;100.00
51287;BME280;37364;46.974;18.916;2023-05-23T01:47:20;154247.25;;;15.46;100.00
51287;BME280;37364;46.974;18.916;2023-05-23T01:49:52;154231.69;;;15.39;100.00
51287;BME280;37364;46.974;18.916;2023-05-23T01:52:22;154222.56;;;15.36;100.00
51287;BME280;37364;46.974;18.916;2023-05-23T01:54:53;154223.88;;;15.36;100.00
51287;BME280;37364;46.974;18.916;2023-05-23T01:57:25;154217.38;;;15.34;100.00
51287;BME280;37364;46.974;18.916;2023-05-23T02:00:00;154221.28;;;15.35;100.00
51287;BME280;37364;46.974;18.916;2023-05-23T02:02:39;154213.47;;;15.32;100.00
51287;BME280;37364;46.974;18.916;2023-05-23T02:05:09;154212.19;;;15.32;100.00
51287;BME280;37364;46.974;18.916;2023-05-23T02:07:40;154208.28;;;15.30;100.00
51287;BME280;37364;46.974;18.916;2023-05-23T02:10:10;154201.81;;;15.28;100.00
51287;BME280;37364;46.974;18.916;2023-05-23T02:12:40;154194.00;;;15.25;100.00
51287;BME280;37364;46.974;18.916;2023-05-23T02:15:13;154191.41;;;15.23;100.00
51287;BME280;37364;46.974;18.916;2023-05-23T02:17:44;154186.22;;;15.21;100.00
51287;BME280;37364;46.974;18.916;2023-05-23T02:20:15;154174.50;;;15.17;100.00
51287;BME280;37364;46.974;18.916;2023-05-23T02:22:47;154166.75;;;15.14;100.00
51287;BME280;37364;46.974;18.916;2023-05-23T02:25:17;154165.44;;;15.13;100.00
51287;BME280;37364;46.974;18.916;2023-05-23T02:27:47;154157.63;;;15.10;100.00
51287;BME280;37364;46.974;18.916;2023-05-23T02:30:20;154149.81;;;15.07;100.00
51287;BME280;37364;46.974;18.916;2023-05-23T02:32:51;154145.97;;;15.06;100.00
51287;BME280;37364;46.974;18.916;2023-05-23T02:35:24;154132.97;;;15.00;100.00
51287;BME280;37364;46.974;18.916;2023-05-23T02:37:54;154127.78;;;14.98;100.00
51287;BME280;37364;46.974;18.916;2023-05-23T02:40:25;154119.97;;;14.95;100.00
51287;BME280;37364;46.974;18.916;2023-05-23T02:42:55;154114.75;;;14.93;100.00
51287;BME280;37364;46.974;18.916;2023-05-23T02:45:28;154103.09;;;14.89;100.00
51287;BME280;37364;46.974;18.916;2023-05-23T02:48:01;154091.44;;;14.84;100.00
51287;BME280;37364;46.974;18.916;2023-05-23T02:50:32;154082.34;;;14.80;100.00
51287;BME280;37364;46.974;18.916;2023-05-23T02:53:03;154069.31;;;14.75;100.00
51287;BME280;37364;46.974;18.916;2023-05-23T02:55:33;154071.94;;;14.76;100.00
51287;BME280;37364;46.974;18.916;2023-05-23T02:58:05;154073.22;;;14.77;100.00
51287;BME280;37364;46.974;18.916;2023-05-23T03:00:37;154070.63;;;14.76;100.00
51287;BME280;37364;46.974;18.916;2023-05-23T03:03:10;154070.63;;;14.76;100.00
51287;BME280;37364;46.974;18.916;2023-05-23T03:05:40;154068.03;;;14.75;100.00
51287;BME280;37364;46.974;18.916;2023-05-23T03:08:11;154058.94;;;14.71;100.00
51287;BME280;37364;46.974;18.916;2023-05-23T03:10:41;154060.22;;;14.72;100.00
51287;BME280;37364;46.974;18.916;2023-05-23T03:13:11;154057.66;;;14.71;100.00
51287;BME280;37364;46.974;18.916;2023-05-23T03:15:45;154056.38;;;14.70;100.00
51287;BME280;37364;46.974;18.916;2023-05-23T03:18:15;154058.94;;;14.71;100.00
51287;BME280;37364;46.974;18.916;2023-05-23T03:20:45;154062.84;;;14.73;100.00
51287;BME280;37364;46.974;18.916;2023-05-23T03:23:15;154047.28;;;14.67;100.00
51287;BME280;37364;46.974;18.916;2023-05-23T03:25:46;154052.47;;;14.69;100.00
51287;BME280;37364;46.974;18.916;2023-05-23T03:28:16;154053.75;;;14.69;100.00
51287;BME280;37364;46.974;18.916;2023-05-23T03:30:49;154053.75;;;14.69;100.00
51287;BME280;37364;46.974;18.916;2023-05-23T03:33:19;154053.75;;;14.69;100.00
51287;BME280;37364;46.974;18.916;2023-05-23T03:35:49;154058.94;;;14.71;100.00
51287;BME280;37364;46.974;18.916;2023-05-23T03:38:20;154061.56;;;14.72;100.00
51287;BME280;37364;46.974;18.916;2023-05-23T03:40:50;154068.03;;;14.75;100.00
51287;BME280;37364;46.974;18.916;2023-05-23T03:43:20;154069.31;;;14.75;100.00
51287;BME280;37364;46.974;18.916;2023-05-23T03:45:53;154071.94;;;14.76;100.00
51287;BME280;37364;46.974;18.916;2023-05-23T03:48:23;154077.13;;;14.78;100.00
51287;BME280;37364;46.974;18.916;2023-05-23T03:50:54;154081.03;;;14.80;100.00
51287;BME280;37364;46.974;18.916;2023-05-23T03:53:24;154082.34;;;14.80;100.00
51287;BME280;37364;46.974;18.916;2023-05-23T03:55:54;154092.72;;;14.85;100.00
51287;BME280;37364;46.974;18.916;2023-05-23T03:58:24;154096.63;;;14.86;100.00
51287;BME280;37364;46.974;18.916;2023-05-23T04:01:02;154109.56;;;14.91;100.00
51287;BME280;37364;46.974;18.916;2023-05-23T04:03:32;154114.75;;;14.93;100.00
51287;BME280;37364;46.974;18.916;2023-05-23T04:06:03;154122.59;;;14.96;100.00
51287;BME280;37364;46.974;18.916;2023-05-23T04:08:36;154139.44;;;15.03;100.00
51287;BME280;37364;46.974;18.916;2023-05-23T04:11:08;154148.53;;;15.07;100.00
51287;BME280;37364;46.974;18.916;2023-05-23T04:13:40;154169.31;;;15.15;100.00
51287;BME280;37364;46.974;18.916;2023-05-23T04:16:13;154184.88;;;15.21;100.00
51287;BME280;37364;46.974;18.916;2023-05-23T04:18:43;154205.72;;;15.29;100.00
51287;BME280;37364;46.974;18.916;2023-05-23T04:21:14;154229.06;;;15.38;100.00
51287;BME280;37364;46.974;18.916;2023-05-23T04:23:57;154265.47;;;15.53;100.00
51287;BME280;37364;46.974;18.916;2023-05-23T04:26:28;154304.44;;;15.68;100.00
51287;BME280;37364;46.974;18.916;2023-05-23T04:28:59;154322.66;;;15.75;100.00
51287;BME280;37364;46.974;18.916;2023-05-23T04:31:33;154357.72;;;15.89;100.00
51287;BME280;37364;46.974;18.916;2023-05-23T04:34:03;154378.50;;;15.97;100.00
51287;BME280;37364;46.974;18.916;2023-05-23T04:36:37;154404.53;;;16.08;100.00
51287;BME280;37364;46.974;18.916;2023-05-23T04:39:11;154437.00;;;16.20;100.00
51287;BME280;37364;46.974;18.916;2023-05-23T04:41:55;154499.41;;;16.45;100.00
51287;BME280;37364;46.974;18.916;2023-05-23T04:44:45;154557.94;;;16.68;100.00
51287;BME280;37364;46.974;18.916;2023-05-23T04:47:23;154607.38;;;16.88;100.00
51287;BME280;37364;46.974;18.916;2023-05-23T04:50:01;154659.38;;;17.08;100.00
51287;BME280;37364;46.974;18.916;2023-05-23T04:52:32;154700.97;;;17.25;100.00
51287;BME280;37364;46.974;18.916;2023-05-23T04:55:03;154812.88;;;17.69;100.00
51287;BME280;37364;46.974;18.916;2023-05-23T04:57:35;154897.47;;;18.02;100.00
51287;BME280;37364;46.974;18.916;2023-05-23T05:00:07;154919.59;;;18.11;100.00
51287;BME280;37364;46.974;18.916;2023-05-23T05:02:40;154998.97;;;18.42;100.00
51287;BME280;37364;46.974;18.916;2023-05-23T05:05:11;155041.94;;;18.59;100.00
51287;BME280;37364;46.974;18.916;2023-05-23T05:07:41;155060.19;;;18.66;100.00
51287;BME280;37364;46.974;18.916;2023-05-23T05:10:12;155090.13;;;18.78;100.00
51287;BME280;37364;46.974;18.916;2023-05-23T05:12:44;155118.78;;;18.89;100.00
51287;BME280;37364;46.974;18.916;2023-05-23T05:15:17;155143.50;;;18.99;100.00
51287;BME280;37364;46.974;18.916;2023-05-23T05:17:55;155213.88;;;19.27;100.00
51287;BME280;37364;46.974;18.916;2023-05-23T05:20:25;155127.91;;;18.93;100.00
51287;BME280;37364;46.974;18.916;2023-05-23T05:22:57;155118.78;;;18.89;100.00
51287;BME280;37364;46.974;18.916;2023-05-23T05:25:28;155222.94;;;19.30;100.00
51287;BME280;37364;46.974;18.916;2023-05-23T05:28:01;155332.41;;;19.73;100.00
51287;BME280;37364;46.974;18.916;2023-05-23T05:30:40;155325.84;;;19.71;100.00
51287;BME280;37364;46.974;18.916;2023-05-23T05:33:15;155327.19;;;19.71;100.00
51287;BME280;37364;46.974;18.916;2023-05-23T05:35:45;155371.47;;;19.89;100.00
51287;BME280;37364;46.974;18.916;2023-05-23T05:38:16;155428.84;;;20.11;100.00
51287;BME280;37364;46.974;18.916;2023-05-23T05:40:46;155401.44;;;20.01;100.00
51287;BME280;37364;46.974;18.916;2023-05-23T05:43:17;155457.47;;;20.23;100.00
51287;BME280;37364;46.974;18.916;2023-05-23T05:45:47;155475.72;;;20.30;100.00
51287;BME280;37364;46.974;18.916;2023-05-23T05:48:20;155475.72;;;20.30;100.00
51287;BME280;37364;46.974;18.916;2023-05-23T05:50:53;155649.13;;;20.98;100.00
51287;BME280;37364;46.974;18.916;2023-05-23T05:53:23;155689.53;;;21.14;100.00
51287;BME280;37364;46.974;18.916;2023-05-23T05:55:54;155750.78;;;21.38;100.00
51287;BME280;37364;46.974;18.916;2023-05-23T05:58:24;155736.44;;;21.32;100.00
51287;BME280;37364;46.974;18.916;2023-05-23T06:01:04;155701.25;;;21.19;100.00
51287;BME280;37364;46.974;18.916;2023-05-23T06:03:37;155668.69;;;21.06;100.00
51287;BME280;37364;46.974;18.916;2023-05-23T06:06:08;155759.91;;;21.42;100.00
51287;BME280;37364;46.974;18.916;2023-05-23T06:08:40;155786.03;;;21.52;100.00
51287;BME280;37364;46.974;18.916;2023-05-23T06:11:14;155757.34;;;21.41;100.00
51287;BME280;37364;46.974;18.916;2023-05-23T06:13:44;155893.00;;;21.94;100.00
51287;BME280;37364;46.974;18.916;2023-05-23T06:16:15;155942.56;;;22.14;100.00
51287;BME280;37364;46.974;18.916;2023-05-23T06:18:48;155990.91;;;22.33;100.00
51287;BME280;37364;46.974;18.916;2023-05-23T06:21:19;156041.78;;;22.53;100.00
51287;BME280;37364;46.974;18.916;2023-05-23T06:23:50;156070.44;;;22.64;100.00
51287;BME280;37364;46.974;18.916;2023-05-23T06:26:21;156092.66;;;22.73;100.00
51287;BME280;37364;46.974;18.916;2023-05-23T06:28:51;156107.03;;;22.78;100.00
51287;BME280;37364;46.974;18.916;2023-05-23T06:31:22;156054.81;;;22.58;100.00
51287;BME280;37364;46.974;18.916;2023-05-23T06:33:54;156201.06;;;23.15;100.00
51287;BME280;37364;46.974;18.916;2023-05-23T06:36:25;156193.19;;;23.12;100.00
51287;BME280;37364;46.974;18.916;2023-05-23T06:38:55;156221.94;;;23.23;100.00
51287;BME280;37364;46.974;18.916;2023-05-23T06:41:25;156219.28;;;23.22;100.00
51287;BME280;37364;46.974;18.916;2023-05-23T06:43:56;156234.94;;;23.28;100.00
51287;BME280;37364;46.974;18.916;2023-05-23T06:46:29;156214.06;;;23.20;100.00
51287;BME280;37364;46.974;18.916;2023-05-23T06:49:03;156180.13;;;23.07;100.00
51287;BME280;37364;46.974;18.916;2023-05-23T06:51:39;156237.56;;;23.29;100.00
51287;BME280;37364;46.974;18.916;2023-05-23T06:54:10;156342.03;;;23.71;100.00
51287;BME280;37364;46.974;18.916;2023-05-23T06:56:41;156328.94;;;23.65;100.00
51287;BME280;37364;46.974;18.916;2023-05-23T06:59:11;156293.69;;;23.52;100.00
51287;BME280;37364;46.974;18.916;2023-05-23T07:01:42;156344.59;;;23.72;100.00
51287;BME280;37364;46.974;18.916;2023-05-23T07:04:16;156402.13;;;23.94;100.00
51287;BME280;37364;46.974;18.916;2023-05-23T07:06:46;156455.69;;;24.15;100.00
51287;BME280;37364;46.974;18.916;2023-05-23T07:09:16;156451.75;;;24.14;100.00
51287;BME280;37364;46.974;18.916;2023-05-23T07:11:46;156257.16;;;23.37;100.00
51287;BME280;37364;46.974;18.916;2023-05-23T07:14:17;156342.03;;;23.71;100.00
51287;BME280;37364;46.974;18.916;2023-05-23T07:16:49;156412.56;;;23.98;100.00
51287;BME280;37364;46.974;18.916;2023-05-23T07:19:22;156479.16;;;24.24;100.00
51287;BME280;37364;46.974;18.916;2023-05-23T07:21:52;156537.94;;;24.47;100.00
51287;BME280;37364;46.974;18.916;2023-05-23T07:24:22;156489.59;;;24.28;100.00
51287;BME280;37364;46.974;18.916;2023-05-23T07:26:55;156479.16;;;24.24;100.00
51287;BME280;37364;46.974;18.916;2023-05-23T07:29:26;156530.16;;;24.44;100.00
51287;BME280;37364;46.974;18.916;2023-05-23T07:31:59;156603.31;;;24.73;100.00
51287;BME280;37364;46.974;18.916;2023-05-23T07:34:32;156615.09;;;24.78;100.00
51287;BME280;37364;46.974;18.916;2023-05-23T07:37:04;156616.41;;;24.78;100.00
51287;BME280;37364;46.974;18.916;2023-05-23T07:39:40;156592.88;;;24.69;100.00
51287;BME280;37364;46.974;18.916;2023-05-23T07:42:11;156624.22;;;24.81;100.00
51287;BME280;37364;46.974;18.916;2023-05-23T07:44:41;156673.84;;;25.01;100.00
51287;BME280;37364;46.974;18.916;2023-05-23T07:47:11;156779.78;;;25.42;100.00
51287;BME280;37364;46.974;18.916;2023-05-23T07:49:44;156877.78;;;25.81;100.00
51287;BME280;37364;46.974;18.916;2023-05-23T07:52:15;156734.03;;;25.24;100.00
51287;BME280;37364;46.974;18.916;2023-05-23T07:54:45;156641.22;;;24.88;100.00
51287;BME280;37364;46.974;18.916;2023-05-23T07:57:16;156734.03;;;25.24;100.00
51287;BME280;37364;46.974;18.916;2023-05-23T07:59:50;156796.78;;;25.49;100.00
51287;BME280;37364;46.974;18.916;2023-05-23T08:02:20;156796.78;;;25.49;100.00
51287;BME280;37364;46.974;18.916;2023-05-23T08:04:53;156752.31;;;25.32;100.00
51287;BME280;37364;46.974;18.916;2023-05-23T08:07:23;156931.47;;;26.02;100.00
51287;BME280;37364;46.974;18.916;2023-05-23T08:09:58;156981.13;;;26.21;100.00
51287;BME280;37364;46.974;18.916;2023-05-23T08:12:28;156913.13;;;25.95;100.00
51287;BME280;37364;46.974;18.916;2023-05-23T08:15:12;157019.03;;;26.36;100.00
51287;BME280;37364;46.974;18.916;2023-05-23T08:17:48;157072.66;;;26.57;100.00
51287;BME280;37364;46.974;18.916;2023-05-23T08:20:26;157111.94;;;26.73;100.00
51287;BME280;37364;46.974;18.916;2023-05-23T08:22:58;157159.00;;;26.91;99.86
51287;BME280;37364;46.974;18.916;2023-05-23T08:25:29;157173.41;;;26.97;90.73
51287;BME280;37364;46.974;18.916;2023-05-23T08:28:00;157182.56;;;27.00;93.50
51287;BME280;37364;46.974;18.916;2023-05-23T08:30:43;157195.66;;;27.06;94.91
51287;BME280;37364;46.974;18.916;2023-05-23T08:33:14;157215.28;;;27.13;100.00
51287;BME280;37364;46.974;18.916;2023-05-23T08:35:49;157157.72;;;26.91;94.80
51287;BME280;37364;46.974;18.916;2023-05-23T08:38:19;157121.09;;;26.76;94.26
51287;BME280;37364;46.974;18.916;2023-05-23T08:41:03;157021.66;;;26.37;100.00
51287;BME280;37364;46.974;18.916;2023-05-23T08:43:34;157172.09;;;26.96;100.00
51287;BME280;37364;46.974;18.916;2023-05-23T08:46:06;156982.44;;;26.22;96.52
51287;BME280;37364;46.974;18.916;2023-05-23T08:48:37;157111.94;;;26.73;95.51
51287;BME280;37364;46.974;18.916;2023-05-23T08:51:13;157155.13;;;26.90;95.54
51287;BME280;37364;46.974;18.916;2023-05-23T08:53:45;157191.72;;;27.04;93.62
51287;BME280;37364;46.974;18.916;2023-05-23T08:56:22;157236.22;;;27.21;95.04
51287;BME280;37364;46.974;18.916;2023-05-23T08:58:56;157134.22;;;26.81;92.50
51287;BME280;37364;46.974;18.916;2023-05-23T09:01:28;157181.28;;;27.00;93.85
51287;BME280;37364;46.974;18.916;2023-05-23T09:04:04;156970.69;;;26.17;93.63
51287;BME280;37364;46.974;18.916;2023-05-23T09:07:00;157003.34;;;26.30;93.94
51287;BME280;37364;46.974;18.916;2023-05-23T09:09:32;157126.34;;;26.78;90.54
51287;BME280;37364;46.974;18.916;2023-05-23T09:12:05;157051.75;;;26.49;94.19
51287;BME280;37364;46.974;18.916;2023-05-23T09:14:36;157145.97;;;26.86;94.53
51287;BME280;37364;46.974;18.916;2023-05-23T09:17:08;157224.47;;;27.17;87.54
51287;BME280;37364;46.974;18.916;2023-05-23T09:19:40;156981.13;;;26.21;90.36
51287;BME280;37364;46.974;18.916;2023-05-23T09:22:25;157211.34;;;27.12;95.31
51287;BME280;37364;46.974;18.916;2023-05-23T09:25:02;157139.44;;;26.83;89.98
51287;BME280;37364;46.974;18.916;2023-05-23T09:27:37;157199.59;;;27.07;89.58
51287;BME280;37364;46.974;18.916;2023-05-23T09:30:11;157258.47;;;27.30;90.11
51287;BME280;37364;46.974;18.916;2023-05-23T09:32:56;157385.44;;;27.80;95.93
51287;BME280;37364;46.974;18.916;2023-05-23T09:35:31;157272.88;;;27.36;92.50
51287;BME280;37364;46.974;18.916;2023-05-23T09:38:07;157125.03;;;26.78;91.45
51287;BME280;37364;46.974;18.916;2023-05-23T09:40:37;157138.09;;;26.83;93.83
51287;BME280;37364;46.974;18.916;2023-05-23T09:43:18;157309.56;;;27.50;86.35
51287;BME280;37364;46.974;18.916;2023-05-23T09:45:52;157479.72;;;28.17;80.81
51287;BME280;37364;46.974;18.916;2023-05-23T09:48:27;157428.63;;;27.97;78.01
51287;BME280;37364;46.974;18.916;2023-05-23T09:51:03;157628.97;;;28.75;85.64
51287;BME280;37364;46.974;18.916;2023-05-23T09:53:36;157617.19;;;28.71;80.84
51287;BME280;37364;46.974;18.916;2023-05-23T09:56:09;157748.16;;;29.22;84.33
51287;BME280;37364;46.974;18.916;2023-05-23T09:58:43;157587.06;;;28.59;79.49
51287;BME280;37364;46.974;18.916;2023-05-23T10:01:15;157436.50;;;28.00;74.60
51287;BME280;37364;46.974;18.916;2023-05-23T10:03:48;157490.19;;;28.21;90.05
51287;BME280;37364;46.974;18.916;2023-05-23T10:06:25;157481.00;;;28.17;85.36
51287;BME280;37364;46.974;18.916;2023-05-23T10:09:03;157566.16;;;28.51;74.22
51287;BME280;37364;46.974;18.916;2023-05-23T10:14:37;157725.94;;;29.13;70.77
51287;BME280;37364;46.974;18.916;2023-05-23T10:17:15;157757.34;;;29.26;71.94
51287;BME280;37364;46.974;18.916;2023-05-23T10:19:50;157803.19;;;29.44;81.07
51287;BME280;37364;46.974;18.916;2023-05-23T10:22:23;157761.28;;;29.27;75.01
51287;BME280;37364;46.974;18.916;2023-05-23T10:24:56;157697.06;;;29.02;70.45
51287;BME280;37364;46.974;18.916;2023-05-23T10:27:26;157628.97;;;28.75;75.06
51287;BME280;37364;46.974;18.916;2023-05-23T10:29:57;157676.13;;;28.94;77.00
51287;BME280;37364;46.974;18.916;2023-05-23T10:32:28;157479.72;;;28.17;74.16
51287;BME280;37364;46.974;18.916;2023-05-23T10:35:05;157551.69;;;28.45;75.71
51287;BME280;37364;46.974;18.916;2023-05-23T10:37:41;157440.44;;;28.02;78.42
51287;BME280;37364;46.974;18.916;2023-05-23T10:40:19;157280.75;;;27.39;78.51
51287;BME280;37364;46.974;18.916;2023-05-23T10:42:56;157223.13;;;27.16;79.15
51287;BME280;37364;46.974;18.916;2023-05-23T10:45:39;157344.88;;;27.64;79.84
51287;BME280;37364;46.974;18.916;2023-05-23T10:48:21;157271.59;;;27.35;76.91
51287;BME280;37364;46.974;18.916;2023-05-23T10:51:05;157143.31;;;26.85;74.40
51287;BME280;37364;46.974;18.916;2023-05-23T10:53:39;157302.97;;;27.48;75.31
51287;BME280;37364;46.974;18.916;2023-05-23T10:56:21;157564.78;;;28.50;77.67
51287;BME280;37364;46.974;18.916;2023-05-23T10:58:55;157617.19;;;28.71;71.91
51287;BME280;37364;46.974;18.916;2023-05-23T11:01:25;157716.69;;;29.10;73.53
51287;BME280;37364;46.974;18.916;2023-05-23T11:03:56;157706.22;;;29.06;78.05
51287;BME280;37364;46.974;18.916;2023-05-23T11:06:31;157596.25;;;28.63;65.48
51287;BME280;37364;46.974;18.916;2023-05-23T11:09:04;157664.34;;;28.89;65.78
51287;BME280;37364;46.974;18.916;2023-05-23T11:11:58;157766.53;;;29.29;64.14
51287;BME280;37364;46.974;18.916;2023-05-23T11:14:53;157733.75;;;29.16;60.23
51287;BME280;37364;46.974;18.916;2023-05-23T11:17:30;157923.72;;;29.91;68.09
51287;BME280;37364;46.974;18.916;2023-05-23T11:20:05;157889.72;;;29.77;60.91
51287;BME280;37364;46.974;18.916;2023-05-23T11:22:39;157902.78;;;29.83;63.87
51287;BME280;37364;46.974;18.916;2023-05-23T11:25:11;157963.03;;;30.06;65.29
51287;BME280;37364;46.974;18.916;2023-05-23T11:27:45;157943.38;;;29.99;69.52
51287;BME280;37364;46.974;18.916;2023-05-23T11:30:16;157906.72;;;29.84;66.83
51287;BME280;37364;46.974;18.916;2023-05-23T11:32:50;157767.81;;;29.30;69.59
51287;BME280;37364;46.974;18.916;2023-05-23T11:35:22;157711.47;;;29.08;65.32
51287;BME280;37364;46.974;18.916;2023-05-23T11:37:55;157846.41;;;29.61;66.26
51287;BME280;37364;46.974;18.916;2023-05-23T11:40:30;157928.97;;;29.93;58.83
51287;BME280;37364;46.974;18.916;2023-05-23T11:43:05;157845.13;;;29.60;57.28
51287;BME280;37364;46.974;18.916;2023-05-23T11:45:37;157735.09;;;29.17;59.18
51287;BME280;37364;46.974;18.916;2023-05-23T11:48:08;157891.00;;;29.78;68.70
51287;BME280;37364;46.974;18.916;2023-05-23T11:50:44;157868.66;;;29.69;67.19
51287;BME280;37364;46.974;18.916;2023-05-23T11:53:15;157841.19;;;29.58;60.95
51287;BME280;37364;46.974;18.916;2023-05-23T11:55:49;157851.66;;;29.63;67.18
51287;BME280;37364;46.974;18.916;2023-05-23T11:58:26;157835.94;;;29.56;61.17
51287;BME280;37364;46.974;18.916;2023-05-23T12:01:00;157866.06;;;29.68;59.14
51287;BME280;37364;46.974;18.916;2023-05-23T12:03:32;157893.59;;;29.79;66.54
51287;BME280;37364;46.974;18.916;2023-05-23T12:06:05;157976.16;;;30.11;62.46
51287;BME280;37364;46.974;18.916;2023-05-23T12:08:39;157932.91;;;29.94;57.71
51287;BME280;37364;46.974;18.916;2023-05-23T12:11:09;157914.53;;;29.87;57.06
51287;BME280;37364;46.974;18.916;2023-05-23T12:13:43;158108.53;;;30.63;60.75
51287;BME280;37364;46.974;18.916;2023-05-23T12:16:14;157983.97;;;30.14;63.22
51287;BME280;37364;46.974;18.916;2023-05-23T12:18:44;157946.03;;;30.00;59.10
51287;BME280;37364;46.974;18.916;2023-05-23T12:21:14;157993.16;;;30.18;60.65
51287;BME280;37364;46.974;18.916;2023-05-23T12:23:45;157982.69;;;30.14;60.76
51287;BME280;37364;46.974;18.916;2023-05-23T12:26:15;157870.00;;;29.70;56.11
51287;BME280;37364;46.974;18.916;2023-05-23T12:28:48;157849.00;;;29.62;56.94
51287;BME280;37364;46.974;18.916;2023-05-23T12:31:21;157783.53;;;29.36;56.48
51287;BME280;37364;46.974;18.916;2023-05-23T12:33:52;157782.22;;;29.35;56.00
51287;BME280;37364;46.974;18.916;2023-05-23T12:36:24;157860.81;;;29.66;52.92
51287;BME280;37364;46.974;18.916;2023-05-23T12:39:01;157917.19;;;29.88;54.98
51287;BME280;37364;46.974;18.916;2023-05-23T12:41:32;157893.59;;;29.79;54.93
51287;BME280;37364;46.974;18.916;2023-05-23T12:44:05;157901.47;;;29.82;52.67
51287;BME280;37364;46.974;18.916;2023-05-23T12:46:35;157877.88;;;29.73;53.05
51287;BME280;37364;46.974;18.916;2023-05-23T12:49:05;157925.06;;;29.91;56.24
51287;BME280;37364;46.974;18.916;2023-05-23T12:51:36;157914.53;;;29.87;56.04
51287;BME280;37364;46.974;18.916;2023-05-23T12:54:07;157851.66;;;29.63;52.74
51287;BME280;37364;46.974;18.916;2023-05-23T12:56:37;157846.41;;;29.61;54.28
51287;BME280;37364;46.974;18.916;2023-05-23T12:59:10;157763.88;;;29.28;53.31
51287;BME280;37364;46.974;18.916;2023-05-23T13:01:40;157856.88;;;29.65;52.30
51287;BME280;37364;46.974;18.916;2023-05-23T13:04:11;157938.16;;;29.96;52.17